sensor_id;sensor_type;location;lat;lon;timestamp;pressure;altitude;pressure_sealevel;temperature;humidity
71465;BME280;59274;49.874;9.154;2023-03-31T00:00:51;99646.06;;;9.59;100.00
71465;BME280;59274;49.874;9.154;2023-03-31T00:03:17;99644.97;;;9.64;100.00
71465;BME280;59274;49.874;9.154;2023-03-31T00:05:46;99633.28;;;9.53;100.00
71465;BME280;59274;49.874;9.154;2023-03-31T00:08:12;99645.59;;;9.36;100.00
71465;BME280;59274;49.874;9.154;2023-03-31T00:10:43;99634.38;;;9.37;100.00
71465;BME280;59274;49.874;9.154;2023-03-31T00:13:10;99632.38;;;9.31;100.00
71465;BME280;59274;49.874;9.154;2023-03-31T00:15:35;99624.69;;;9.40;100.00
71465;BME280;59274;49.874;9.154;2023-03-31T00:18:01;99623.53;;;9.41;100.00
71465;BME280;59274;49.874;9.154;2023-03-31T00:20:27;99615.81;;;9.47;100.00
71465;BME280;59274;49.874;9.154;2023-03-31T00:22:52;99603.44;;;9.49;100.00
71465;BME280;59274;49.874;9.154;2023-03-31T00:25:19;99608.88;;;9.49;100.00
71465;BME280;59274;49.874;9.154;2023-03-31T00:27:45;99596.88;;;9.50;100.00
71465;BME280;59274;49.874;9.154;2023-03-31T00:30:14;99597.97;;;9.38;100.00
71465;BME280;59274;49.874;9.154;2023-03-31T00:32:40;99587.19;;;9.49;100.00
71465;BME280;59274;49.874;9.154;2023-03-31T00:35:06;99577.53;;;9.52;100.00
71465;BME280;59274;49.874;9.154;2023-03-31T00:37:33;99573.66;;;9.56;100.00
71465;BME280;59274;49.874;9.154;2023-03-31T00:39:58;99572.00;;;9.30;100.00
71465;BME280;59274;49.874;9.154;2023-03-31T00:42:24;99565.75;;;9.19;100.00
71465;BME280;59274;49.874;9.154;2023-03-31T00:48:22;99563.44;;;9.21;100.00
71465;BME280;59274;49.874;9.154;2023-03-31T00:50:48;99551.81;;;9.21;100.00
71465;BME280;59274;49.874;9.154;2023-03-31T00:53:16;99560.28;;;9.09;100.00
71465;BME280;59274;49.874;9.154;2023-03-31T00:55:55;99546.25;;;8.92;100.00
71465;BME280;59274;49.874;9.154;2023-03-31T00:58:23;99543.50;;;8.89;100.00
71465;BME280;59274;49.874;9.154;2023-03-31T01:00:54;99547.72;;;8.83;100.00
71465;BME280;59274;49.874;9.154;2023-03-31T01:03:21;99530.72;;;8.86;100.00
71465;BME280;59274;49.874;9.154;2023-03-31T01:05:51;99536.94;;;8.90;100.00
71465;BME280;59274;49.874;9.154;2023-03-31T01:08:18;99537.63;;;8.76;100.00
71465;BME280;59274;49.874;9.154;2023-03-31T01:10:52;99522.94;;;8.77;100.00
71465;BME280;59274;49.874;9.154;2023-03-31T01:13:20;99524.50;;;8.78;100.00
71465;BME280;59274;49.874;9.154;2023-03-31T01:15:46;99527.50;;;8.66;100.00
71465;BME280;59274;49.874;9.154;2023-03-31T01:18:13;99517.47;;;8.70;100.00
71465;BME280;59274;49.874;9.154;2023-03-31T01:23:30;99513.25;;;8.76;100.00
71465;BME280;59274;49.874;9.154;2023-03-31T01:32:04;99500.50;;;8.77;100.00
71465;BME280;59274;49.874;9.154;2023-03-31T01:35:00;99500.94;;;8.86;100.00
71465;BME280;59274;49.874;9.154;2023-03-31T01:57:04;99463.09;;;8.93;100.00
71465;BME280;59274;49.874;9.154;2023-03-31T01:59:39;99460.00;;;8.94;100.00
71465;BME280;59274;49.874;9.154;2023-03-31T02:02:12;99461.50;;;8.85;100.00
71465;BME280;59274;49.874;9.154;2023-03-31T02:04:45;99455.31;;;8.88;100.00
71465;BME280;59274;49.874;9.154;2023-03-31T02:07:21;99455.72;;;8.93;100.00
71465;BME280;59274;49.874;9.154;2023-03-31T02:09:52;99455.75;;;9.04;100.00
71465;BME280;59274;49.874;9.154;2023-03-31T02:12:23;99447.97;;;8.95;100.00
71465;BME280;59274;49.874;9.154;2023-03-31T02:14:51;99442.56;;;8.95;100.00
71465;BME280;59274;49.874;9.154;2023-03-31T02:17:21;99446.13;;;9.07;100.00
71465;BME280;59274;49.874;9.154;2023-03-31T02:19:56;99438.00;;;9.07;100.00
71465;BME280;59274;49.874;9.154;2023-03-31T02:22:28;99438.41;;;9.16;100.00
71465;BME280;59274;49.874;9.154;2023-03-31T02:24:56;99434.09;;;9.04;100.00
71465;BME280;59274;49.874;9.154;2023-03-31T02:27:26;99421.34;;;9.12;100.00
71465;BME280;59274;49.874;9.154;2023-03-31T02:29:53;99421.38;;;9.19;100.00
71465;BME280;59274;49.874;9.154;2023-03-31T02:32:39;99415.19;;;9.18;100.00
71465;BME280;59274;49.874;9.154;2023-03-31T02:35:08;99414.06;;;9.26;100.00
71465;BME280;59274;49.874;9.154;2023-03-31T02:37:34;99412.53;;;9.36;100.00
71465;BME280;59274;49.874;9.154;2023-03-31T02:40:04;99409.41;;;9.27;100.00
71465;BME280;59274;49.874;9.154;2023-03-31T02:42:30;99403.59;;;9.32;100.00
71465;BME280;59274;49.874;9.154;2023-03-31T02:45:33;99399.34;;;9.27;100.00
71465;BME280;59274;49.874;9.154;2023-03-31T02:47:52;99390.03;;;9.25;100.00
71465;BME280;59274;49.874;9.154;2023-03-31T02:50:20;99383.50;;;9.33;100.00
71465;BME280;59274;49.874;9.154;2023-03-31T02:58:50;99371.44;;;9.06;100.00
71465;BME280;59274;49.874;9.154;2023-03-31T03:15:08;99352.06;;;9.03;100.00
71465;BME280;59274;49.874;9.154;2023-03-31T03:17:41;99339.34;;;9.08;100.00
71465;BME280;59274;49.874;9.154;2023-03-31T03:20:08;99335.06;;;9.10;100.00
71465;BME280;59274;49.874;9.154;2023-03-31T03:22:36;99333.91;;;9.11;100.00
71465;BME280;59274;49.874;9.154;2023-03-31T03:25:02;99329.31;;;9.40;100.00
71465;BME280;59274;49.874;9.154;2023-03-31T03:27:28;99334.34;;;9.49;100.00
71465;BME280;59274;49.874;9.154;2023-03-31T03:29:54;99333.59;;;9.45;100.00
71465;BME280;59274;49.874;9.154;2023-03-31T03:32:20;99318.06;;;9.45;100.00
71465;BME280;59274;49.874;9.154;2023-03-31T03:34:45;99308.41;;;9.48;100.00
71465;BME280;59274;49.874;9.154;2023-03-31T03:37:11;99298.34;;;9.52;100.00
71465;BME280;59274;49.874;9.154;2023-03-31T03:39:36;99278.59;;;9.51;100.00
71465;BME280;59274;49.874;9.154;2023-03-31T03:42:02;99274.69;;;9.52;100.00
71465;BME280;59274;49.874;9.154;2023-03-31T03:44:27;99268.91;;;9.43;100.00
71465;BME280;59274;49.874;9.154;2023-03-31T03:46:53;99272.78;;;9.31;100.00
71465;BME280;59274;49.874;9.154;2023-03-31T03:49:18;99263.13;;;9.16;100.00
71465;BME280;59274;49.874;9.154;2023-03-31T03:51:44;99254.19;;;9.26;100.00
71465;BME280;59274;49.874;9.154;2023-03-31T03:54:10;99246.88;;;9.30;100.00
71465;BME280;59274;49.874;9.154;2023-03-31T03:56:35;99244.16;;;9.30;100.00
71465;BME280;59274;49.874;9.154;2023-03-31T03:59:01;99236.03;;;9.16;100.00
71465;BME280;59274;49.874;9.154;2023-03-31T04:01:26;99239.09;;;9.18;100.00
71465;BME280;59274;49.874;9.154;2023-03-31T04:03:52;99230.59;;;9.13;100.00
71465;BME280;59274;49.874;9.154;2023-03-31T04:06:18;99229.84;;;9.16;100.00
71465;BME280;59274;49.874;9.154;2023-03-31T04:08:43;99231.34;;;9.02;100.00
71465;BME280;59274;49.874;9.154;2023-03-31T04:11:17;99230.59;;;9.06;100.00
71465;BME280;59274;49.874;9.154;2023-03-31T04:13:44;99225.94;;;8.88;100.00
71465;BME280;59274;49.874;9.154;2023-03-31T04:16:10;99221.28;;;8.89;100.00
71465;BME280;59274;49.874;9.154;2023-03-31T04:18:36;99200.81;;;8.98;100.00
71465;BME280;59274;49.874;9.154;2023-03-31T04:21:13;99167.91;;;8.96;100.00
71465;BME280;59274;49.874;9.154;2023-03-31T04:23:48;99176.03;;;9.03;100.00
71465;BME280;59274;49.874;9.154;2023-03-31T04:26:16;99160.19;;;8.95;100.00
71465;BME280;59274;49.874;9.154;2023-03-31T04:28:43;99158.25;;;8.92;100.00
71465;BME280;59274;49.874;9.154;2023-03-31T04:31:12;99178.38;;;8.87;100.00
71465;BME280;59274;49.874;9.154;2023-03-31T04:33:41;99171.41;;;8.90;100.00
71465;BME280;59274;49.874;9.154;2023-03-31T04:36:10;99165.59;;;8.91;100.00
71465;BME280;59274;49.874;9.154;2023-03-31T04:38:46;99170.25;;;8.80;100.00
71465;BME280;59274;49.874;9.154;2023-03-31T04:41:13;99156.31;;;8.75;100.00
71465;BME280;59274;49.874;9.154;2023-03-31T04:43:38;99162.50;;;8.82;100.00
71465;BME280;59274;49.874;9.154;2023-03-31T04:46:04;99163.66;;;8.81;100.00
71465;BME280;59274;49.874;9.154;2023-03-31T04:48:32;99158.66;;;8.87;100.00
71465;BME280;59274;49.874;9.154;2023-03-31T04:50:58;99142.41;;;8.94;100.00
71465;BME280;59274;49.874;9.154;2023-03-31T04:53:23;99135.81;;;8.98;100.00
71465;BME280;59274;49.874;9.154;2023-03-31T04:55:50;99140.47;;;8.91;100.00
71465;BME280;59274;49.874;9.154;2023-03-31T04:58:16;99130.00;;;8.96;100.00
71465;BME280;59274;49.874;9.154;2023-03-31T05:00:41;99120.34;;;8.92;100.00
71465;BME280;59274;49.874;9.154;2023-03-31T05:03:07;99113.78;;;8.93;100.00
71465;BME280;59274;49.874;9.154;2023-03-31T05:05:34;99104.50;;;9.01;100.00
71465;BME280;59274;49.874;9.154;2023-03-31T05:08:00;99099.84;;;8.94;100.00
71465;BME280;59274;49.874;9.154;2023-03-31T05:10:25;99094.44;;;9.01;100.00
71465;BME280;59274;49.874;9.154;2023-03-31T05:12:51;99092.88;;;9.00;100.00
71465;BME280;59274;49.874;9.154;2023-03-31T05:15:16;99094.81;;;8.96;100.00
71465;BME280;59274;49.874;9.154;2023-03-31T05:17:42;99100.63;;;8.91;100.00
71465;BME280;59274;49.874;9.154;2023-03-31T05:20:07;99112.59;;;8.90;100.00
71465;BME280;59274;49.874;9.154;2023-03-31T05:22:35;99124.59;;;8.93;100.00
71465;BME280;59274;49.874;9.154;2023-03-31T05:25:03;99119.19;;;8.96;100.00
71465;BME280;59274;49.874;9.154;2023-03-31T05:27:29;99114.94;;;8.99;100.00
71465;BME280;59274;49.874;9.154;2023-03-31T05:29:54;99126.16;;;9.01;100.00
71465;BME280;59274;49.874;9.154;2023-03-31T05:32:20;99121.50;;;8.98;100.00
71465;BME280;59274;49.874;9.154;2023-03-31T05:34:45;99124.59;;;9.07;100.00
71465;BME280;59274;49.874;9.154;2023-03-31T05:37:11;99111.03;;;9.11;100.00
71465;BME280;59274;49.874;9.154;2023-03-31T05:39:36;99115.28;;;9.12;100.00
71465;BME280;59274;49.874;9.154;2023-03-31T05:42:02;99110.66;;;9.12;100.00
71465;BME280;59274;49.874;9.154;2023-03-31T05:44:27;99110.66;;;9.09;100.00
71465;BME280;59274;49.874;9.154;2023-03-31T05:46:53;99100.97;;;9.11;100.00
71465;BME280;59274;49.874;9.154;2023-03-31T05:49:19;99100.59;;;9.16;100.00
71465;BME280;59274;49.874;9.154;2023-03-31T05:51:45;99090.16;;;9.15;100.00
71465;BME280;59274;49.874;9.154;2023-03-31T05:54:11;99089.38;;;9.14;100.00
71465;BME280;59274;49.874;9.154;2023-03-31T05:56:36;99093.22;;;9.17;100.00
71465;BME280;59274;49.874;9.154;2023-03-31T05:59:02;99090.53;;;9.13;100.00
71465;BME280;59274;49.874;9.154;2023-03-31T06:01:28;99087.41;;;9.22;100.00
71465;BME280;59274;49.874;9.154;2023-03-31T06:03:54;99087.41;;;9.22;100.00
71465;BME280;59274;49.874;9.154;2023-03-31T06:06:20;99078.13;;;9.23;100.00
71465;BME280;59274;49.874;9.154;2023-03-31T06:08:46;99071.53;;;9.27;100.00
71465;BME280;59274;49.874;9.154;2023-03-31T06:11:18;99062.63;;;9.27;100.00
71465;BME280;59274;49.874;9.154;2023-03-31T06:13:45;99058.75;;;9.24;100.00
71465;BME280;59274;49.874;9.154;2023-03-31T06:16:11;99052.59;;;9.20;100.00
71465;BME280;59274;49.874;9.154;2023-03-31T06:18:38;99040.22;;;9.23;100.00
71465;BME280;59274;49.874;9.154;2023-03-31T06:21:04;99031.28;;;9.26;100.00
71465;BME280;59274;49.874;9.154;2023-03-31T06:23:30;99026.63;;;9.26;100.00
71465;BME280;59274;49.874;9.154;2023-03-31T06:26:00;99007.69;;;9.23;100.00
71465;BME280;59274;49.874;9.154;2023-03-31T06:28:26;98996.84;;;9.26;100.00
71465;BME280;59274;49.874;9.154;2023-03-31T06:31:03;99001.50;;;9.22;100.00
71465;BME280;59274;49.874;9.154;2023-03-31T06:33:29;98979.41;;;9.27;100.00
71465;BME280;59274;49.874;9.154;2023-03-31T06:35:55;98976.34;;;9.22;100.00
71465;BME280;59274;49.874;9.154;2023-03-31T06:38:21;98976.72;;;9.24;100.00
71465;BME280;59274;49.874;9.154;2023-03-31T06:40:47;98974.78;;;9.24;100.00
71465;BME280;59274;49.874;9.154;2023-03-31T06:43:12;98972.13;;;9.14;100.00
71465;BME280;59274;49.874;9.154;2023-03-31T06:45:38;98963.63;;;9.12;100.00
71465;BME280;59274;49.874;9.154;2023-03-31T06:48:03;98940.78;;;9.13;100.00
71465;BME280;59274;49.874;9.154;2023-03-31T06:50:29;98941.16;;;9.18;100.00
71465;BME280;59274;49.874;9.154;2023-03-31T06:52:55;98919.09;;;9.23;100.00
71465;BME280;59274;49.874;9.154;2023-03-31T06:55:20;98926.44;;;9.23;100.00
71465;BME280;59274;49.874;9.154;2023-03-31T06:57:46;98907.09;;;9.17;100.00
71465;BME280;59274;49.874;9.154;2023-03-31T07:00:12;98890.84;;;9.21;100.00
71465;BME280;59274;49.874;9.154;2023-03-31T07:02:37;98881.91;;;9.27;100.00
71465;BME280;59274;49.874;9.154;2023-03-31T07:05:03;98889.50;;;9.47;100.00
71465;BME280;59274;49.874;9.154;2023-03-31T07:07:32;98895.31;;;9.45;100.00
71465;BME280;59274;49.874;9.154;2023-03-31T07:09:58;98890.72;;;9.38;100.00
71465;BME280;59274;49.874;9.154;2023-03-31T07:12:23;98883.31;;;9.50;100.00
71465;BME280;59274;49.874;9.154;2023-03-31T07:14:49;98883.69;;;9.52;100.00
71465;BME280;59274;49.874;9.154;2023-03-31T07:17:17;98887.22;;;9.38;100.00
71465;BME280;59274;49.874;9.154;2023-03-31T07:19:42;98882.91;;;9.48;100.00
71465;BME280;59274;49.874;9.154;2023-03-31T07:22:13;98882.59;;;9.42;100.00
71465;BME280;59274;49.874;9.154;2023-03-31T07:24:39;98887.59;;;9.43;100.00
71465;BME280;59274;49.874;9.154;2023-03-31T07:27:04;98888.28;;;9.58;100.00
71465;BME280;59274;49.874;9.154;2023-03-31T07:29:32;98885.94;;;9.60;100.00
71465;BME280;59274;49.874;9.154;2023-03-31T07:32:01;98887.50;;;9.58;100.00
71465;BME280;59274;49.874;9.154;2023-03-31T07:34:26;98878.97;;;9.59;100.00
71465;BME280;59274;49.874;9.154;2023-03-31T07:36:54;98896.00;;;9.60;100.00
71465;BME280;59274;49.874;9.154;2023-03-31T07:39:20;98875.78;;;9.71;100.00
71465;BME280;59274;49.874;9.154;2023-03-31T07:41:49;98885.00;;;9.81;100.00
71465;BME280;59274;49.874;9.154;2023-03-31T07:44:14;98881.88;;;9.86;100.00
71465;BME280;59274;49.874;9.154;2023-03-31T07:46:41;98879.44;;;9.95;100.00
71465;BME280;59274;49.874;9.154;2023-03-31T07:49:07;98875.56;;;10.00;100.00
71465;BME280;59274;49.874;9.154;2023-03-31T07:51:34;98873.38;;;9.80;100.00
71465;BME280;59274;49.874;9.154;2023-03-31T07:54:00;98873.28;;;9.91;100.00
71465;BME280;59274;49.874;9.154;2023-03-31T07:56:25;98886.59;;;9.75;100.00
71465;BME280;59274;49.874;9.154;2023-03-31T07:58:51;98885.31;;;9.90;100.00
71465;BME280;59274;49.874;9.154;2023-03-31T08:01:18;98869.28;;;10.06;100.00
71465;BME280;59274;49.874;9.154;2023-03-31T08:03:45;98874.72;;;10.06;100.00
71465;BME280;59274;49.874;9.154;2023-03-31T08:06:12;98857.66;;;10.06;100.00
71465;BME280;59274;49.874;9.154;2023-03-31T08:08:41;98878.13;;;10.14;100.00
71465;BME280;59274;49.874;9.154;2023-03-31T08:11:08;98868.81;;;10.18;100.00
71465;BME280;59274;49.874;9.154;2023-03-31T08:13:34;98874.22;;;10.18;100.00
71465;BME280;59274;49.874;9.154;2023-03-31T08:15:59;98889.34;;;10.19;100.00
71465;BME280;59274;49.874;9.154;2023-03-31T08:18:25;98867.28;;;10.14;100.00
71465;BME280;59274;49.874;9.154;2023-03-31T08:20:50;98860.66;;;10.22;100.00
71465;BME280;59274;49.874;9.154;2023-03-31T08:23:16;98869.47;;;10.30;100.00
71465;BME280;59274;49.874;9.154;2023-03-31T08:25:41;98860.53;;;10.33;100.00
71465;BME280;59274;49.874;9.154;2023-03-31T08:28:06;98865.16;;;10.32;100.00
71465;BME280;59274;49.874;9.154;2023-03-31T08:30:37;98865.88;;;10.40;100.00
71465;BME280;59274;49.874;9.154;2023-03-31T08:33:03;98847.16;;;10.49;100.00
71465;BME280;59274;49.874;9.154;2023-03-31T08:35:28;98850.25;;;10.51;100.00
71465;BME280;59274;49.874;9.154;2023-03-31T08:37:54;98859.66;;;10.43;100.00
71465;BME280;59274;49.874;9.154;2023-03-31T08:40:23;98870.34;;;10.57;100.00
71465;BME280;59274;49.874;9.154;2023-03-31T08:43:01;98869.63;;;10.83;100.00
71465;BME280;59274;49.874;9.154;2023-03-31T08:45:35;98881.47;;;11.00;100.00
71465;BME280;59274;49.874;9.154;2023-03-31T08:48:06;98878.28;;;11.05;100.00
71465;BME280;59274;49.874;9.154;2023-03-31T08:50:43;98880.31;;;10.97;100.00
71465;BME280;59274;49.874;9.154;2023-03-31T08:53:19;98884.66;;;10.91;100.00
71465;BME280;59274;49.874;9.154;2023-03-31T08:55:52;98891.75;;;10.82;100.00
71465;BME280;59274;49.874;9.154;2023-03-31T08:58:40;98915.56;;;10.71;100.00
71465;BME280;59274;49.874;9.154;2023-03-31T09:06:50;98943.22;;;10.21;100.00
71465;BME280;59274;49.874;9.154;2023-03-31T09:15:28;98885.31;;;9.90;100.00
71465;BME280;59274;49.874;9.154;2023-03-31T09:17:57;98876.28;;;10.04;100.00
71465;BME280;59274;49.874;9.154;2023-03-31T09:20:29;98877.69;;;10.23;100.00
71465;BME280;59274;49.874;9.154;2023-03-31T09:26:15;98863.47;;;10.45;100.00
71465;BME280;59274;49.874;9.154;2023-03-31T09:28:45;98871.91;;;10.54;100.00
71465;BME280;59274;49.874;9.154;2023-03-31T09:31:16;98859.09;;;10.58;100.00
71465;BME280;59274;49.874;9.154;2023-03-31T09:33:45;98862.19;;;10.57;100.00
71465;BME280;59274;49.874;9.154;2023-03-31T09:36:16;98866.47;;;10.54;100.00
71465;BME280;59274;49.874;9.154;2023-03-31T09:38:43;98870.66;;;10.29;100.00
71465;BME280;59274;49.874;9.154;2023-03-31T09:41:10;98851.34;;;10.19;100.00
71465;BME280;59274;49.874;9.154;2023-03-31T09:43:37;98857.59;;;10.13;100.00
71465;BME280;59274;49.874;9.154;2023-03-31T09:46:15;98862.59;;;10.22;100.00
71465;BME280;59274;49.874;9.154;2023-03-31T09:49:00;98868.00;;;10.22;100.00
71465;BME280;59274;49.874;9.154;2023-03-31T09:51:29;98863.47;;;10.45;100.00
71465;BME280;59274;49.874;9.154;2023-03-31T09:54:11;98862.69;;;10.48;100.00
71465;BME280;59274;49.874;9.154;2023-03-31T09:56:46;98854.84;;;10.54;100.00
71465;BME280;59274;49.874;9.154;2023-03-31T09:59:15;98860.44;;;10.74;100.00
71465;BME280;59274;49.874;9.154;2023-03-31T10:01:43;98869.16;;;10.92;100.00
71465;BME280;59274;49.874;9.154;2023-03-31T10:04:17;98866.13;;;10.86;100.00
71465;BME280;59274;49.874;9.154;2023-03-31T10:06:44;98862.81;;;10.72;100.00
71465;BME280;59274;49.874;9.154;2023-03-31T10:09:11;98860.09;;;10.72;100.00
71465;BME280;59274;49.874;9.154;2023-03-31T10:11:38;98863.22;;;10.70;100.00
71465;BME280;59274;49.874;9.154;2023-03-31T10:14:09;98875.28;;;10.66;100.00
71465;BME280;59274;49.874;9.154;2023-03-31T10:16:48;98874.78;;;10.74;100.00
71465;BME280;59274;49.874;9.154;2023-03-31T10:19:28;98896.88;;;10.76;100.00
71465;BME280;59274;49.874;9.154;2023-03-31T10:22:26;98900.28;;;10.84;100.00
71465;BME280;59274;49.874;9.154;2023-03-31T10:24:53;98891.69;;;10.89;100.00
71465;BME280;59274;49.874;9.154;2023-03-31T10:27:29;98879.91;;;10.99;100.00
71465;BME280;59274;49.874;9.154;2023-03-31T10:30:07;98880.91;;;11.12;100.00
71465;BME280;59274;49.874;9.154;2023-03-31T10:32:38;98861.50;;;11.10;100.00
71465;BME280;59274;49.874;9.154;2023-03-31T10:35:14;98848.66;;;11.41;100.00
71465;BME280;59274;49.874;9.154;2023-03-31T10:37:43;98834.78;;;11.59;100.00
71465;BME280;59274;49.874;9.154;2023-03-31T10:40:15;98829.59;;;11.68;100.00
71465;BME280;59274;49.874;9.154;2023-03-31T10:42:45;98817.69;;;12.05;100.00
71465;BME280;59274;49.874;9.154;2023-03-31T10:47:39;98811.84;;;12.66;100.00
71465;BME280;59274;49.874;9.154;2023-03-31T10:50:13;98807.66;;;12.61;100.00
71465;BME280;59274;49.874;9.154;2023-03-31T10:52:46;98812.69;;;12.63;99.53
71465;BME280;59274;49.874;9.154;2023-03-31T10:55:30;98809.25;;;12.59;97.88
71465;BME280;59274;49.874;9.154;2023-03-31T10:59:01;98817.03;;;12.40;100.00
71465;BME280;59274;49.874;9.154;2023-03-31T11:01:22;98799.88;;;12.79;100.00
71465;BME280;59274;49.874;9.154;2023-03-31T11:04:00;98783.22;;;13.13;100.00
71465;BME280;59274;49.874;9.154;2023-03-31T11:09:25;98797.38;;;13.05;98.59
71465;BME280;59274;49.874;9.154;2023-03-31T11:12:11;98798.13;;;12.89;100.00
71465;BME280;59274;49.874;9.154;2023-03-31T11:19:58;98783.72;;;13.24;88.91
71465;BME280;59274;49.874;9.154;2023-03-31T11:23:06;98780.72;;;13.67;88.21
71465;BME280;59274;49.874;9.154;2023-03-31T11:31:10;98773.53;;;13.73;84.07
71465;BME280;59274;49.874;9.154;2023-03-31T11:33:44;98777.75;;;13.62;82.86
71465;BME280;59274;49.874;9.154;2023-03-31T11:41:40;98761.97;;;13.53;88.72
71465;BME280;59274;49.874;9.154;2023-03-31T11:44:14;98770.03;;;13.73;83.84
71465;BME280;59274;49.874;9.154;2023-03-31T11:46:48;98777.75;;;13.46;85.71
71465;BME280;59274;49.874;9.154;2023-03-31T11:49:25;98778.50;;;13.30;84.60
71465;BME280;59274;49.874;9.154;2023-03-31T11:52:14;98777.69;;;13.33;84.40
71465;BME280;59274;49.874;9.154;2023-03-31T11:55:00;98769.50;;;13.49;87.09
71465;BME280;59274;49.874;9.154;2023-03-31T11:57:35;98763.59;;;13.67;89.69
71465;BME280;59274;49.874;9.154;2023-03-31T12:00:11;98765.88;;;13.68;88.27
71465;BME280;59274;49.874;9.154;2023-03-31T12:03:10;98760.50;;;13.00;92.05
71465;BME280;59274;49.874;9.154;2023-03-31T12:06:08;98755.66;;;12.91;92.42
71465;BME280;59274;49.874;9.154;2023-03-31T12:08:45;98762.38;;;13.03;93.17
71465;BME280;59274;49.874;9.154;2023-03-31T12:11:21;98758.59;;;13.33;91.42
71465;BME280;59274;49.874;9.154;2023-03-31T12:13:52;98754.91;;;13.56;90.88
71465;BME280;59274;49.874;9.154;2023-03-31T12:16:24;98747.41;;;13.44;89.37
71465;BME280;59274;49.874;9.154;2023-03-31T12:19:05;98747.31;;;13.15;92.95
71465;BME280;59274;49.874;9.154;2023-03-31T12:21:34;98741.03;;;13.34;92.42
71465;BME280;59274;49.874;9.154;2023-03-31T12:24:01;98734.53;;;13.12;96.87
71465;BME280;59274;49.874;9.154;2023-03-31T12:31:53;98733.41;;;12.93;95.74
71465;BME280;59274;49.874;9.154;2023-03-31T12:34:22;98721.63;;;12.64;100.00
71465;BME280;59274;49.874;9.154;2023-03-31T12:37:07;98720.63;;;12.74;98.53
71465;BME280;59274;49.874;9.154;2023-03-31T12:39:44;98727.38;;;12.49;97.97
71465;BME280;59274;49.874;9.154;2023-03-31T12:42:35;98734.72;;;12.33;100.00
71465;BME280;59274;49.874;9.154;2023-03-31T12:53:51;98712.03;;;12.39;100.00
71465;BME280;59274;49.874;9.154;2023-03-31T12:56:18;98693.63;;;12.95;100.00
71465;BME280;59274;49.874;9.154;2023-03-31T12:58:44;98707.09;;;13.03;100.00
71465;BME280;59274;49.874;9.154;2023-03-31T13:03:52;98719.59;;;12.68;100.00
71465;BME280;59274;49.874;9.154;2023-03-31T13:08:56;98710.59;;;12.35;100.00
71465;BME280;59274;49.874;9.154;2023-03-31T13:14:18;98719.50;;;12.15;100.00
71465;BME280;59274;49.874;9.154;2023-03-31T13:16:47;98709.63;;;12.05;100.00
71465;BME280;59274;49.874;9.154;2023-03-31T13:19:29;98703.28;;;11.92;100.00
71465;BME280;59274;49.874;9.154;2023-03-31T13:21:57;98696.16;;;11.79;100.00
71465;BME280;59274;49.874;9.154;2023-03-31T13:24:30;98696.69;;;11.70;100.00
71465;BME280;59274;49.874;9.154;2023-03-31T13:27:27;98672.69;;;11.65;100.00
71465;BME280;59274;49.874;9.154;2023-03-31T13:29:53;98681.47;;;11.72;100.00
71465;BME280;59274;49.874;9.154;2023-03-31T13:32:23;98673.09;;;12.23;100.00
71465;BME280;59274;49.874;9.154;2023-03-31T13:35:01;98673.38;;;12.64;95.00
71465;BME280;59274;49.874;9.154;2023-03-31T13:43:44;98658.72;;;13.68;91.04
71465;BME280;59274;49.874;9.154;2023-03-31T13:51:30;98656.91;;;14.44;79.34
71465;BME280;59274;49.874;9.154;2023-03-31T14:04:49;98694.19;;;12.54;88.10
71465;BME280;59274;49.874;9.154;2023-03-31T14:09:55;98798.41;;;10.38;100.00
71465;BME280;59274;49.874;9.154;2023-03-31T14:12:36;98752.91;;;9.81;100.00
71465;BME280;59274;49.874;9.154;2023-03-31T14:15:03;98723.91;;;9.78;100.00
71465;BME280;59274;49.874;9.154;2023-03-31T14:17:33;98699.81;;;9.84;100.00
71465;BME280;59274;49.874;9.154;2023-03-31T14:20:04;98711.84;;;10.17;100.00
71465;BME280;59274;49.874;9.154;2023-03-31T14:28:19;98715.44;;;10.94;100.00
71465;BME280;59274;49.874;9.154;2023-03-31T14:36:32;98680.66;;;10.86;100.00
71465;BME280;59274;49.874;9.154;2023-03-31T14:39:05;98678.00;;;11.06;100.00
71465;BME280;59274;49.874;9.154;2023-03-31T14:41:33;98672.34;;;11.63;100.00
71465;BME280;59274;49.874;9.154;2023-03-31T14:44:04;98678.44;;;12.10;100.00
71465;BME280;59274;49.874;9.154;2023-03-31T14:46:37;98678.44;;;12.10;100.00
71465;BME280;59274;49.874;9.154;2023-03-31T14:49:24;98676.38;;;11.55;100.00
71465;BME280;59274;49.874;9.154;2023-03-31T14:51:51;98677.19;;;11.52;100.00
71465;BME280;59274;49.874;9.154;2023-03-31T14:54:18;98669.00;;;11.32;100.00
71465;BME280;59274;49.874;9.154;2023-03-31T14:56:47;98676.19;;;11.22;100.00
71465;BME280;59274;49.874;9.154;2023-03-31T14:59:19;98673.22;;;11.13;100.00
71465;BME280;59274;49.874;9.154;2023-03-31T15:01:48;98670.91;;;11.12;100.00
71465;BME280;59274;49.874;9.154;2023-03-31T15:04:17;98663.09;;;11.80;100.00
71465;BME280;59274;49.874;9.154;2023-03-31T15:06:44;98651.75;;;12.73;100.00
71465;BME280;59274;49.874;9.154;2023-03-31T15:09:16;98644.88;;;13.46;100.00
71465;BME280;59274;49.874;9.154;2023-03-31T15:11:45;98634.34;;;14.15;100.00
71465;BME280;59274;49.874;9.154;2023-03-31T15:14:11;98633.44;;;15.54;100.00
71465;BME280;59274;49.874;9.154;2023-03-31T15:16:43;98625.91;;;16.11;90.86
71465;BME280;59274;49.874;9.154;2023-03-31T15:19:23;98614.66;;;17.16;88.97
71465;BME280;59274;49.874;9.154;2023-03-31T15:24:29;98618.22;;;14.59;95.50
71465;BME280;59274;49.874;9.154;2023-03-31T15:27:09;98627.78;;;13.58;100.00
71465;BME280;59274;49.874;9.154;2023-03-31T15:29:46;98640.34;;;12.78;100.00
71465;BME280;59274;49.874;9.154;2023-03-31T15:32:16;98653.09;;;12.49;100.00
71465;BME280;59274;49.874;9.154;2023-03-31T15:34:47;98671.66;;;12.18;100.00
71465;BME280;59274;49.874;9.154;2023-03-31T15:37:14;98738.50;;;11.99;100.00
71465;BME280;59274;49.874;9.154;2023-03-31T15:39:44;98742.94;;;11.47;100.00
71465;BME280;59274;49.874;9.154;2023-03-31T15:42:12;98735.09;;;11.02;100.00